createdAt,value
2018-02-12T00:01:11.017Z,90.50
2018-02-12T00:03:38.469Z,90.70
2018-02-12T00:06:06.694Z,90.80
2018-02-12T00:08:34.149Z,90.70
2018-02-12T00:11:02.371Z,90.90
2018-02-12T00:13:29.823Z,90.80
2018-02-12T00:15:57.281Z,91.10
2018-02-12T00:18:25.504Z,90.70
2018-02-12T00:20:52.982Z,90.70
2018-02-12T00:23:20.436Z,90.70
2018-02-12T00:25:47.893Z,90.70
2018-02-12T00:28:15.348Z,90.80
2018-02-12T00:30:42.828Z,90.70
2018-02-12T00:33:10.287Z,90.70
2018-02-12T00:35:37.742Z,90.60
2018-02-12T00:38:05.211Z,90.70
2018-02-12T00:40:32.660Z,90.70
2018-02-12T00:43:00.144Z,90.70
2018-02-12T00:45:27.599Z,90.80
2018-02-12T00:47:55.065Z,91.00
2018-02-12T00:50:22.522Z,90.70
2018-02-12T00:52:49.984Z,90.80
2018-02-12T00:55:17.437Z,90.80
2018-02-12T00:57:44.903Z,90.80
2018-02-12T01:00:12.364Z,90.80
2018-02-12T01:02:39.824Z,90.80
2018-02-12T01:05:07.288Z,90.80
2018-02-12T01:07:34.743Z,90.70
2018-02-12T01:10:02.209Z,90.70
2018-02-12T01:12:29.671Z,90.80
2018-02-12T01:14:57.139Z,90.60
2018-02-12T01:17:24.629Z,90.60
2018-02-12T01:19:52.839Z,90.70
2018-02-12T01:22:20.307Z,90.70
2018-02-12T01:24:47.759Z,90.80
2018-02-12T01:27:15.240Z,90.70
2018-02-12T01:29:42.692Z,90.70
2018-02-12T01:32:10.153Z,90.80
2018-02-12T01:34:37.612Z,90.70
2018-02-12T01:37:05.081Z,91.00
2018-02-12T01:39:32.548Z,90.70
2018-02-12T01:41:59.995Z,91.20
2018-02-12T01:44:27.455Z,91.30
2018-02-12T01:46:54.916Z,91.20
2018-02-12T01:49:22.382Z,90.90
2018-02-12T01:51:49.827Z,90.80
2018-02-12T01:54:17.286Z,90.80
2018-02-12T01:56:45.506Z,90.80
2018-02-12T01:59:13.729Z,90.60
2018-02-12T02:01:41.960Z,90.10
2018-02-12T02:04:09.420Z,90.10
2018-02-12T02:06:36.889Z,90.00
2018-02-12T02:09:04.352Z,90.00
2018-02-12T02:11:31.804Z,89.80
2018-02-12T02:13:59.273Z,89.70
2018-02-12T02:16:26.730Z,89.50
2018-02-12T02:18:54.184Z,89.50
2018-02-12T02:21:21.644Z,89.10
2018-02-12T02:23:49.105Z,88.80
2018-02-12T02:26:16.562Z,89.60
2018-02-12T02:28:44.025Z,88.70
2018-02-12T02:31:11.469Z,88.20
2018-02-12T02:33:39.697Z,88.20
2018-02-12T02:36:07.233Z,88.20
2018-02-12T02:38:34.682Z,88.10
2018-02-12T02:41:02.899Z,88.40
2018-02-12T02:43:30.361Z,88.40
2018-02-12T02:45:57.819Z,88.60
2018-02-12T02:48:25.277Z,88.90
2018-02-12T02:50:52.730Z,89.10
2018-02-12T02:53:20.190Z,89.40
2018-02-12T02:55:47.669Z,89.40
2018-02-12T02:58:15.122Z,89.50
2018-02-12T03:00:42.589Z,89.70
2018-02-12T03:03:10.036Z,89.90
2018-02-12T03:05:37.503Z,90.00
2018-02-12T03:08:04.948Z,90.00
2018-02-12T03:10:32.415Z,90.10
2018-02-12T03:12:59.868Z,90.10
2018-02-12T03:15:27.341Z,90.40
2018-02-12T03:17:54.803Z,90.20
2018-02-12T03:20:22.275Z,90.20
2018-02-12T03:22:49.727Z,90.20
2018-02-12T03:25:17.176Z,90.20
2018-02-12T03:27:44.640Z,90.20
2018-02-12T03:30:12.106Z,90.10
2018-02-12T03:32:39.561Z,90.10
2018-02-12T03:35:07.030Z,90.10
2018-02-12T03:37:34.491Z,90.20
2018-02-12T03:40:01.973Z,90.40
2018-02-12T03:42:29.436Z,90.40
2018-02-12T03:44:56.905Z,90.50
2018-02-12T03:47:24.368Z,90.30
2018-02-12T03:49:51.826Z,90.50
2018-02-12T03:52:19.283Z,90.50
2018-02-12T03:54:46.751Z,90.50
2018-02-12T03:57:14.204Z,90.30
2018-02-12T03:59:41.677Z,90.30
2018-02-12T04:02:09.139Z,90.20
2018-02-12T04:04:36.601Z,90.20
2018-02-12T04:07:04.069Z,89.60
2018-02-12T04:09:31.521Z,90.10
2018-02-12T04:11:58.982Z,90.10
2018-02-12T04:14:26.433Z,89.20
2018-02-12T04:16:53.901Z,86.60
2018-02-12T04:19:21.349Z,86.10
2018-02-12T04:21:48.810Z,84.90
2018-02-12T04:24:16.256Z,86.00
2018-02-12T04:26:44.477Z,85.90
2018-02-12T04:29:12.717Z,86.00
2018-02-12T04:31:40.936Z,87.30
2018-02-12T04:34:08.397Z,87.20
2018-02-12T04:36:35.899Z,86.20
2018-02-12T04:39:03.319Z,85.40
2018-02-12T04:41:31.560Z,83.30
2018-02-12T04:43:59.777Z,84.00
2018-02-12T04:46:28.174Z,84.00
2018-02-12T04:48:55.632Z,83.10
2018-02-12T04:51:23.093Z,82.50
2018-02-12T04:53:51.337Z,81.90
2018-02-12T04:56:18.781Z,82.40
2018-02-12T04:58:47.011Z,81.80
2018-02-12T05:01:14.464Z,81.60
2018-02-12T05:03:41.916Z,81.60
2018-02-12T05:06:09.382Z,82.10
2018-02-12T05:08:36.847Z,82.70
2018-02-12T05:11:04.326Z,82.10
2018-02-12T05:13:32.555Z,81.60
2018-02-12T05:16:00.780Z,81.60
2018-02-12T05:18:28.246Z,80.90
2018-02-12T05:20:55.691Z,82.20
2018-02-12T05:23:23.140Z,81.60
2018-02-12T05:25:50.598Z,82.10
2018-02-12T05:28:18.059Z,81.60
2018-02-12T05:30:45.508Z,82.00
2018-02-12T05:33:13.735Z,82.10
2018-02-12T05:35:41.189Z,82.30
2018-02-12T05:38:08.659Z,81.20
2018-02-12T05:40:36.110Z,81.60
2018-02-12T05:43:03.571Z,81.40
2018-02-12T05:45:31.025Z,80.60
2018-02-12T05:47:58.485Z,81.10
2018-02-12T05:50:25.947Z,81.50
2018-02-12T05:52:53.426Z,81.10
2018-02-12T05:55:20.884Z,80.30
2018-02-12T05:57:48.341Z,80.90
2018-02-12T06:00:15.796Z,82.30
2018-02-12T06:02:43.247Z,81.70
2018-02-12T06:05:10.717Z,81.00
2018-02-12T06:07:38.169Z,80.80
2018-02-12T06:10:05.629Z,81.00
2018-02-12T06:12:33.125Z,81.50
2018-02-12T06:15:00.609Z,81.90
2018-02-12T06:17:28.071Z,81.90
2018-02-12T06:19:55.532Z,81.60
2018-02-12T06:22:23.000Z,81.50
2018-02-12T06:24:50.464Z,81.20
2018-02-12T06:27:17.914Z,82.30
2018-02-12T06:29:45.377Z,83.00
2018-02-12T06:32:12.829Z,82.40
2018-02-12T06:34:40.292Z,83.50
2018-02-12T06:37:08.517Z,82.60
2018-02-12T06:39:36.745Z,83.20
2018-02-12T06:42:04.200Z,83.20
2018-02-12T06:44:31.658Z,83.20
2018-02-12T06:46:59.117Z,83.70
2018-02-12T06:49:26.610Z,83.70
2018-02-12T06:51:54.090Z,82.90
2018-02-12T06:54:21.540Z,83.40
2018-02-12T06:56:48.993Z,82.60
2018-02-12T06:59:17.233Z,84.40
2018-02-12T07:01:45.461Z,83.50
2018-02-12T07:04:12.916Z,83.50
2018-02-12T07:06:40.372Z,82.60
2018-02-12T07:09:07.845Z,82.60
2018-02-12T07:11:35.307Z,82.60
2018-02-12T07:14:02.771Z,82.00
2018-02-12T07:16:30.224Z,81.50
2018-02-12T07:18:57.703Z,82.50
2018-02-12T07:21:25.180Z,80.90
2018-02-12T07:23:52.637Z,81.30
2018-02-12T07:26:20.110Z,80.70
2018-02-12T07:28:47.552Z,80.80
2018-02-12T07:31:15.014Z,81.30
2018-02-12T07:33:42.460Z,81.70
2018-02-12T07:36:09.924Z,81.20
2018-02-12T07:38:37.392Z,81.60
2018-02-12T07:41:04.852Z,81.90
2018-02-12T07:43:33.088Z,82.60
2018-02-12T07:46:00.557Z,82.60
2018-02-12T07:48:28.013Z,82.40
2018-02-12T07:50:56.238Z,82.20
2018-02-12T07:53:23.717Z,82.30
2018-02-12T07:55:51.182Z,80.80
2018-02-12T07:58:18.617Z,80.80
2018-02-12T08:00:46.087Z,82.60
2018-02-12T08:03:13.528Z,82.10
2018-02-12T08:05:41.008Z,80.70
2018-02-12T08:08:08.481Z,81.80
2018-02-12T08:10:35.947Z,82.30
2018-02-12T08:13:03.400Z,82.30
2018-02-12T08:15:30.867Z,81.80
2018-02-12T08:17:58.321Z,80.30
2018-02-12T08:20:25.792Z,81.50
2018-02-12T08:22:53.241Z,81.00
2018-02-12T08:25:20.720Z,80.60
2018-02-12T08:27:48.203Z,79.00
2018-02-12T08:30:22.136Z,78.90
2018-02-12T08:32:50.362Z,79.10
2018-02-12T08:35:17.829Z,78.90
2018-02-12T08:37:45.284Z,78.50
2018-02-12T08:40:12.745Z,78.70
2018-02-12T08:42:40.208Z,78.20
2018-02-12T08:45:07.664Z,78.40
2018-02-12T08:47:35.122Z,77.80
2018-02-12T08:50:02.570Z,76.40
2018-02-12T08:52:30.029Z,76.90
2018-02-12T08:54:57.507Z,76.40
2018-02-12T08:57:24.973Z,76.50
2018-02-12T08:59:52.426Z,77.60
2018-02-12T09:02:19.906Z,76.00
2018-02-12T09:04:47.365Z,77.10
2018-02-12T09:07:14.842Z,75.00
2018-02-12T09:09:42.295Z,76.40
2018-02-12T09:12:09.784Z,76.20
2018-02-12T09:14:37.276Z,76.30
2018-02-12T09:17:05.498Z,76.90
2018-02-12T09:19:33.838Z,76.90
2018-02-12T09:22:02.066Z,77.60
2018-02-12T09:24:29.529Z,77.60
2018-02-12T09:26:56.990Z,76.60
2018-02-12T09:29:24.449Z,76.30
2018-02-12T09:31:51.908Z,77.60
2018-02-12T09:34:19.376Z,78.00
2018-02-12T09:36:46.849Z,76.90
2018-02-12T09:39:14.309Z,76.10
2018-02-12T09:41:41.774Z,76.80
2018-02-12T09:44:09.234Z,76.10
2018-02-12T09:46:36.708Z,75.90
2018-02-12T09:49:04.174Z,75.80
2018-02-12T09:51:33.127Z,74.20
2018-02-12T09:54:00.580Z,74.20
2018-02-12T09:56:28.040Z,73.30
2018-02-12T09:58:55.518Z,75.60
2018-02-12T10:01:22.983Z,75.50
2018-02-12T10:03:50.445Z,74.50
2018-02-12T10:06:17.906Z,73.90
2018-02-12T10:08:45.373Z,74.00
2018-02-12T10:11:13.834Z,74.40
2018-02-12T10:13:41.280Z,73.10
2018-02-12T10:16:09.495Z,72.80
2018-02-12T10:18:36.954Z,72.10
2018-02-12T10:21:04.417Z,72.70
2018-02-12T10:23:31.872Z,72.90
2018-02-12T10:25:59.335Z,72.50
2018-02-12T10:28:26.801Z,72.80
2018-02-12T10:30:54.252Z,71.10
2018-02-12T10:33:21.717Z,68.90
2018-02-12T10:35:49.938Z,68.90
2018-02-12T10:38:17.388Z,68.90
2018-02-12T10:40:44.847Z,69.60
2018-02-12T10:43:12.314Z,74.90
2018-02-12T10:45:39.748Z,78.00
2018-02-12T10:48:07.201Z,74.60
2018-02-12T10:50:34.662Z,74.30
2018-02-12T10:53:02.127Z,74.40
2018-02-12T10:55:29.596Z,74.20
2018-02-12T10:57:57.048Z,72.50
2018-02-12T11:00:24.513Z,71.90
2018-02-12T11:02:51.981Z,69.50
2018-02-12T11:05:19.478Z,69.80
2018-02-12T11:07:46.936Z,72.70
2018-02-12T11:10:14.397Z,73.00
2018-02-12T11:12:41.856Z,70.40
2018-02-12T11:15:09.317Z,73.20
2018-02-12T11:17:36.771Z,73.50
2018-02-12T11:20:04.230Z,74.20
2018-02-12T11:22:31.680Z,72.10
2018-02-12T11:24:59.145Z,73.30
2018-02-12T11:27:26.592Z,73.10
2018-02-12T11:29:54.062Z,70.00
2018-02-12T11:32:21.508Z,68.40
2018-02-12T11:34:49.835Z,61.70
2018-02-12T11:37:17.279Z,61.80
2018-02-12T11:39:44.749Z,60.30
2018-02-12T11:42:12.197Z,61.00
2018-02-12T11:44:39.666Z,60.60
2018-02-12T11:47:07.110Z,61.10
2018-02-12T11:49:35.328Z,61.50
2018-02-12T11:52:02.777Z,61.50
2018-02-12T11:54:30.240Z,61.10
2018-02-12T11:56:57.688Z,61.00
2018-02-12T11:59:25.156Z,61.20
2018-02-12T12:01:52.628Z,61.00
2018-02-12T12:04:20.093Z,60.60
2018-02-12T12:06:47.537Z,62.70
2018-02-12T12:09:14.985Z,60.20
2018-02-12T12:11:43.217Z,62.30
2018-02-12T12:14:10.668Z,62.30
2018-02-12T12:16:38.128Z,61.90
2018-02-12T12:19:05.592Z,62.60
2018-02-12T12:21:33.073Z,63.60
2018-02-12T12:24:00.521Z,64.80
2018-02-12T12:26:27.968Z,64.30
2018-02-12T12:28:55.422Z,64.40
2018-02-12T12:31:22.876Z,64.50
2018-02-12T12:33:50.328Z,64.60
2018-02-12T12:36:17.790Z,64.10
2018-02-12T12:38:46.010Z,64.30
2018-02-12T12:41:13.468Z,64.30
2018-02-12T12:43:40.912Z,63.30
2018-02-12T12:46:08.383Z,64.00
2018-02-12T12:48:35.836Z,65.30
2018-02-12T12:51:03.306Z,64.90
2018-02-12T12:53:30.758Z,64.40
2018-02-12T12:55:58.224Z,65.10
2018-02-12T12:58:25.670Z,64.60
2018-02-12T13:00:53.246Z,64.00
2018-02-12T13:03:20.679Z,64.70
2018-02-12T13:05:48.926Z,63.60
2018-02-12T13:08:16.361Z,63.40
2018-02-12T13:10:43.825Z,64.30
2018-02-12T13:13:11.280Z,64.40
2018-02-12T13:15:38.766Z,65.10
2018-02-12T13:18:06.220Z,65.30
2018-02-12T13:20:33.680Z,65.60
2018-02-12T13:23:01.152Z,66.40
2018-02-12T13:25:28.613Z,66.30
2018-02-12T13:27:56.082Z,66.20
2018-02-12T13:30:23.529Z,67.10
2018-02-12T13:32:50.995Z,66.50
2018-02-12T13:35:18.469Z,67.40
2018-02-12T13:37:45.933Z,67.40
2018-02-12T13:40:13.388Z,66.80
2018-02-12T13:42:40.848Z,67.40
2018-02-12T13:45:09.120Z,67.90
2018-02-12T13:47:36.580Z,67.60
2018-02-12T13:50:04.028Z,67.10
2018-02-12T13:52:31.492Z,67.30
2018-02-12T13:54:58.952Z,69.80
2018-02-12T13:57:26.427Z,69.20
2018-02-12T13:59:53.878Z,69.10
2018-02-12T14:02:21.344Z,69.30
2018-02-12T14:04:48.805Z,69.80
2018-02-12T14:07:16.264Z,69.40
2018-02-12T14:09:43.727Z,68.70
2018-02-12T14:12:11.181Z,68.20
2018-02-12T14:14:38.629Z,70.10
2018-02-12T14:17:06.864Z,72.50
2018-02-12T14:19:34.321Z,72.50
2018-02-12T14:22:01.783Z,72.80
2018-02-12T14:24:29.245Z,72.50
2018-02-12T14:26:56.709Z,73.30
2018-02-12T14:29:24.153Z,73.70
2018-02-12T14:31:51.611Z,73.70
2018-02-12T14:34:19.061Z,74.00
2018-02-12T14:36:46.508Z,74.00
2018-02-12T14:39:14.738Z,73.60
2018-02-12T14:41:42.197Z,73.60
2018-02-12T14:44:09.655Z,74.80
2018-02-12T14:46:37.094Z,74.00
2018-02-12T14:49:04.558Z,73.10
2018-02-12T14:51:32.032Z,70.00
2018-02-12T14:53:59.489Z,68.40
2018-02-12T14:56:26.948Z,67.80
2018-02-12T14:58:54.421Z,68.70
2018-02-12T15:01:21.894Z,69.20
2018-02-12T15:03:49.435Z,69.90
2018-02-12T15:06:16.897Z,69.70
2018-02-12T15:08:44.378Z,69.40
2018-02-12T15:11:11.826Z,69.80
2018-02-12T15:13:39.284Z,69.60
2018-02-12T15:16:06.736Z,69.50
2018-02-12T15:18:34.202Z,71.00
2018-02-12T15:21:01.651Z,71.20
2018-02-12T15:23:29.881Z,69.30
2018-02-12T15:25:57.347Z,69.30
2018-02-12T15:28:24.837Z,66.90
2018-02-12T15:30:52.292Z,66.80
2018-02-12T15:33:19.740Z,66.40
2018-02-12T15:35:47.200Z,65.40
2018-02-12T15:38:14.668Z,65.30
2018-02-12T15:40:42.124Z,66.40
2018-02-12T15:43:09.584Z,65.70
2018-02-12T15:45:37.060Z,67.20
2018-02-12T15:48:04.524Z,66.70
2018-02-12T15:50:32.000Z,65.40
2018-02-12T15:52:59.453Z,66.40
2018-02-12T15:55:26.912Z,66.40
2018-02-12T15:57:54.360Z,66.00
2018-02-12T16:00:21.836Z,66.10
2018-02-12T16:02:49.297Z,66.30
2018-02-12T16:05:16.838Z,67.20
2018-02-12T16:07:44.309Z,66.50
2018-02-12T16:10:11.762Z,66.80
2018-02-12T16:12:39.212Z,67.10
2018-02-12T16:15:06.672Z,66.30
2018-02-12T16:17:34.138Z,66.30
2018-02-12T16:20:01.621Z,67.50
2018-02-12T16:22:29.072Z,68.70
2018-02-12T16:24:56.539Z,69.10
2018-02-12T16:27:24.001Z,68.90
2018-02-12T16:29:51.473Z,68.90
2018-02-12T16:32:19.680Z,70.90
2018-02-12T16:34:47.156Z,70.90
2018-02-12T16:37:15.379Z,70.90
2018-02-12T16:39:42.833Z,70.90
2018-02-12T16:42:10.284Z,71.60
2018-02-12T16:44:37.745Z,71.30
2018-02-12T16:47:05.213Z,70.80
2018-02-12T16:49:32.669Z,71.10
2018-02-12T16:52:00.133Z,71.00
2018-02-12T16:54:27.592Z,71.00
2018-02-12T16:56:55.072Z,71.20
2018-02-12T16:59:22.512Z,71.90
2018-02-12T17:01:49.989Z,71.50
2018-02-12T17:04:17.444Z,71.60
2018-02-12T17:06:44.909Z,71.90
2018-02-12T17:09:12.359Z,70.20
2018-02-12T17:11:39.812Z,69.40
2018-02-12T17:14:08.039Z,70.20
2018-02-12T17:16:35.500Z,70.20
2018-02-12T17:19:02.961Z,70.30
2018-02-12T17:21:30.424Z,70.60
2018-02-12T17:23:57.875Z,70.40
2018-02-12T17:26:25.333Z,71.50
2018-02-12T17:28:52.790Z,71.30
2018-02-12T17:31:20.251Z,70.80
2018-02-12T17:33:47.716Z,71.00
2018-02-12T17:36:15.177Z,70.90
2018-02-12T17:38:42.616Z,70.60
2018-02-12T17:41:10.837Z,71.10
2018-02-12T17:43:38.305Z,71.10
2018-02-12T17:46:05.764Z,71.40
2018-02-12T17:48:34.118Z,72.80
2018-02-12T17:51:01.573Z,71.80
2018-02-12T17:53:29.033Z,71.90
2018-02-12T17:55:56.508Z,72.30
2018-02-12T17:58:23.972Z,71.70
2018-02-12T18:00:51.434Z,72.30
2018-02-12T18:03:18.900Z,71.90
2018-02-12T18:05:46.356Z,71.30
2018-02-12T18:08:13.822Z,71.90
2018-02-12T18:10:41.265Z,72.10
2018-02-12T18:13:09.488Z,72.60
2018-02-12T18:15:36.941Z,72.60
2018-02-12T18:18:04.401Z,72.20
2018-02-12T18:20:31.865Z,72.90
2018-02-12T18:22:59.336Z,74.20
2018-02-12T18:25:26.801Z,74.60
2018-02-12T18:27:54.265Z,74.60
2018-02-12T18:30:21.709Z,74.00
2018-02-12T18:32:49.188Z,73.90
2018-02-12T18:35:16.725Z,73.90
2018-02-12T18:37:44.195Z,74.50
2018-02-12T18:40:13.302Z,74.30
2018-02-12T18:42:40.748Z,73.20
2018-02-12T18:45:08.209Z,73.40
2018-02-12T18:47:35.676Z,73.40
2018-02-12T18:50:03.137Z,72.80
2018-02-12T18:52:30.601Z,73.10
2018-02-12T18:54:58.060Z,73.40
2018-02-12T18:57:25.524Z,73.80
2018-02-12T18:59:52.990Z,74.20
2018-02-12T19:02:20.477Z,74.90
2018-02-12T19:04:47.942Z,75.10
2018-02-12T19:07:15.409Z,74.80
2018-02-12T19:09:42.866Z,74.90
2018-02-12T19:12:10.324Z,75.50
2018-02-12T19:14:37.784Z,75.40
2018-02-12T19:17:05.248Z,75.20
2018-02-12T19:19:32.729Z,74.80
2018-02-12T19:22:00.180Z,74.70
2018-02-12T19:24:27.654Z,75.10
2018-02-12T19:26:55.120Z,75.10
2018-02-12T19:29:22.585Z,75.00
2018-02-12T19:31:50.027Z,74.90
2018-02-12T19:34:18.256Z,75.40
2018-02-12T19:39:11.445Z,75.30
2018-02-12T19:41:39.656Z,75.20
2018-02-12T19:44:07.118Z,75.20
2018-02-12T19:46:34.572Z,75.30
2018-02-12T19:49:02.028Z,75.20
2018-02-12T19:51:29.481Z,75.40
2018-02-12T19:56:47.900Z,76.10
2018-02-12T19:59:15.338Z,76.40
2018-02-12T20:01:42.797Z,76.50
2018-02-12T20:04:10.268Z,76.40
2018-02-12T20:06:38.496Z,76.60
2018-02-12T20:09:06.720Z,76.80
2018-02-12T20:11:34.160Z,76.80
2018-02-12T20:14:01.624Z,76.70
2018-02-12T20:16:29.077Z,76.50
2018-02-12T20:18:56.551Z,76.70
2018-02-12T20:21:24.010Z,76.90
2018-02-12T20:23:51.463Z,77.10
2018-02-12T20:26:18.920Z,77.00
2018-02-12T20:28:46.384Z,77.50
2018-02-12T20:31:13.858Z,77.80
2018-02-12T20:33:41.318Z,78.00
2018-02-12T20:36:09.528Z,77.80
2018-02-12T20:38:36.986Z,77.80
2018-02-12T20:41:04.442Z,77.60
2018-02-12T20:43:31.898Z,78.00
2018-02-12T20:45:59.360Z,78.10
2018-02-12T20:48:26.813Z,78.40
2018-02-12T20:50:54.273Z,78.70
2018-02-12T20:53:21.723Z,78.80
2018-02-12T20:55:49.954Z,78.90
2018-02-12T20:58:17.405Z,78.90
2018-02-12T21:00:44.861Z,79.10
2018-02-12T21:03:12.312Z,79.10
2018-02-12T21:05:39.778Z,79.30
2018-02-12T21:08:07.226Z,79.40
2018-02-12T21:10:34.685Z,79.70
2018-02-12T21:13:02.137Z,79.70
2018-02-12T21:15:29.589Z,79.80
2018-02-12T21:17:57.805Z,79.50
2018-02-12T21:20:25.263Z,79.50
2018-02-12T21:22:52.709Z,79.50
2018-02-12T21:28:11.029Z,78.60
2018-02-12T21:30:38.480Z,78.30
2018-02-12T21:33:05.943Z,78.40
2018-02-12T21:35:33.400Z,79.00
2018-02-12T21:38:00.850Z,79.10
2018-02-12T21:40:28.295Z,79.10
2018-02-12T21:42:55.756Z,79.20
2018-02-12T21:45:23.198Z,79.20
2018-02-12T21:47:50.656Z,78.90
2018-02-12T21:50:18.109Z,79.20
2018-02-12T21:52:46.346Z,79.50
2018-02-12T21:55:13.801Z,79.50
2018-02-12T21:57:41.266Z,79.90
2018-02-12T22:00:08.718Z,80.00
2018-02-12T22:02:36.185Z,80.10
2018-02-12T22:05:03.662Z,79.70
2018-02-12T22:07:31.105Z,79.60
2018-02-12T22:09:58.553Z,79.80
2018-02-12T22:12:26.012Z,80.00
2018-02-12T22:14:53.448Z,80.10
2018-02-12T22:17:21.679Z,80.20
2018-02-12T22:19:49.128Z,80.10
2018-02-12T22:22:16.590Z,80.30
2018-02-12T22:24:44.042Z,80.40
2018-02-12T22:27:11.506Z,80.50
2018-02-12T22:29:38.950Z,80.50
2018-02-12T22:32:06.404Z,80.50
2018-02-12T22:34:34.620Z,80.60
2018-02-12T22:37:02.086Z,80.50
2018-02-12T22:39:29.532Z,80.50
2018-02-12T22:41:56.997Z,80.80
2018-02-12T22:44:24.457Z,80.60
2018-02-12T22:46:52.664Z,80.90
2018-02-12T22:49:20.108Z,80.90
2018-02-12T22:51:47.593Z,81.10
2018-02-12T22:54:15.049Z,80.70
2018-02-12T22:56:42.512Z,80.60
2018-02-12T22:59:09.980Z,80.90
2018-02-12T23:01:37.415Z,80.90
2018-02-12T23:04:04.872Z,80.90
2018-02-12T23:06:33.093Z,81.40
2018-02-12T23:09:00.554Z,81.40
2018-02-12T23:11:28.002Z,81.20
2018-02-12T23:13:55.460Z,81.50
2018-02-12T23:16:22.926Z,81.50
2018-02-12T23:18:50.386Z,81.70
2018-02-12T23:21:17.832Z,81.80
2018-02-12T23:23:46.073Z,81.80
2018-02-12T23:26:13.504Z,81.80
2018-02-12T23:28:40.970Z,81.90
2018-02-12T23:31:08.413Z,82.00
2018-02-12T23:33:35.876Z,81.90
2018-02-12T23:36:03.316Z,81.60
2018-02-12T23:38:31.541Z,81.40
2018-02-12T23:40:58.989Z,81.40
2018-02-12T23:43:26.448Z,81.30
2018-02-12T23:45:53.912Z,81.60
2018-02-12T23:48:21.376Z,81.40
2018-02-12T23:50:48.829Z,81.30
2018-02-12T23:53:16.280Z,81.20
2018-02-12T23:58:17.599Z,81.30
